Time;durP1;ratioP1;P1;durP2;ratioP2;P2;SDS_P1;SDS_P2;PMS_P1;PMS_P2;Temp;Humidity;BMP_temperature;BMP_pressure;BME280_temperature;BME280_humidity;BME280_pressure;Samples;Min_cycle;Max_cycle;Signal;HPM_P1;HPM_P2
2022/06/16 00:01:02;;;;;;;2.25;0.40;;;;;;;11.94;100.00;99890.02;1760435;79;21125;-54
2022/06/16 00:03:29;;;;;;;0.57;0.30;;;;;;;11.94;100.00;99893.59;1761428;79;21163;-53
2022/06/16 00:05:57;;;;;;;1.77;0.30;;;;;;;11.96;100.00;99892.16;1763053;79;21507;-54
2022/06/16 00:08:23;;;;;;;2.20;0.45;;;;;;;11.99;100.00;99887.97;1763830;80;21060;-54
2022/06/16 00:13:39;;;;;;;1.77;0.30;;;;;;;11.96;100.00;99887.64;1763873;79;20919;-54
2022/06/16 00:16:05;;;;;;;0.60;0.30;;;;;;;11.93;100.00;99892.31;1765083;79;20927;-54
2022/06/16 00:18:32;;;;;;;2.05;0.40;;;;;;;11.89;100.00;99890.27;1763416;79;21434;-54
2022/06/16 00:20:59;;;;;;;0.50;0.30;;;;;;;11.86;100.00;99891.76;1767624;79;20938;-53
2022/06/16 00:23:25;;;;;;;0.40;0.30;;;;;;;11.87;100.00;99888.11;1760926;79;21109;-54
2022/06/16 00:25:52;;;;;;;2.52;0.23;;;;;;;11.90;100.00;99892.02;1762699;79;20911;-54
2022/06/16 00:28:19;;;;;;;1.27;0.30;;;;;;;11.93;100.00;99889.61;1764965;79;21378;-54
2022/06/16 00:30:47;;;;;;;0.55;0.30;;;;;;;11.95;100.00;99889.06;1767742;79;20974;-54
2022/06/16 00:33:13;;;;;;;0.50;0.30;;;;;;;11.94;100.00;99890.89;1762647;79;20911;-54
2022/06/16 00:35:40;;;;;;;0.47;0.30;;;;;;;11.94;100.00;99886.84;1764500;79;21609;-54
2022/06/16 00:38:07;;;;;;;0.98;0.30;;;;;;;11.92;100.00;99883.81;1761572;79;21327;-53
2022/06/16 00:40:33;;;;;;;0.68;0.30;;;;;;;11.92;100.00;99888.73;1761256;80;20902;-53
2022/06/16 00:43:02;;;;;;;0.75;0.50;;;;;;;11.89;100.00;99884.88;1762773;79;21472;-54
2022/06/16 00:45:59;;;;;;;0.30;0.30;;;;;;;11.85;100.00;99887.31;1764182;79;21148;-53
2022/06/16 00:48:25;;;;;;;2.17;0.30;;;;;;;11.81;100.00;99891.14;1751841;79;21073;-53
2022/06/16 00:51:04;;;;;;;3.17;0.30;;;;;;;11.74;100.00;99887.84;1760795;79;21104;-53
2022/06/16 00:53:31;;;;;;;0.50;0.30;;;;;;;11.68;100.00;99896.70;1766811;79;21495;-54
2022/06/16 00:55:57;;;;;;;0.30;0.20;;;;;;;11.65;100.00;99892.83;1696566;79;21057;-53
2022/06/16 00:58:24;;;;;;;1.60;0.30;;;;;;;11.61;100.00;99893.45;1758302;79;21104;-53
2022/06/16 01:00:51;;;;;;;1.57;0.30;;;;;;;11.59;100.00;99893.98;1755821;79;21802;-53
2022/06/16 01:06:18;;;;;;;1.62;0.40;;;;;;;11.59;100.00;99894.47;1761719;80;21018;-54
2022/06/16 01:08:46;;;;;;;2.72;0.30;;;;;;;11.58;100.00;99894.94;1764539;80;21454;-53
2022/06/16 01:14:39;;;;;;;0.40;0.30;;;;;;;11.53;100.00;99894.78;1755144;79;21279;-53
2022/06/16 01:17:40;;;;;;;0.30;0.30;;;;;;;11.48;100.00;99898.19;1755499;79;21121;-53
2022/06/16 01:20:36;;;;;;;1.07;0.20;;;;;;;11.44;100.00;99899.27;1764617;79;21084;-53
2022/06/16 01:23:25;;;;;;;3.05;0.40;;;;;;;11.34;100.00;99896.16;1761106;79;21065;-52
2022/06/16 01:26:14;;;;;;;1.32;0.20;;;;;;;11.29;100.00;99895.52;1762630;80;21120;-53
2022/06/16 01:29:00;;;;;;;0.30;0.30;;;;;;;11.32;100.00;99893.53;1764399;79;22265;-53
2022/06/16 01:31:49;;;;;;;1.47;0.30;;;;;;;11.38;100.00;99893.25;1760771;80;21065;-53
2022/06/16 01:34:57;;;;;;;0.70;0.30;;;;;;;11.44;100.00;99898.80;1755146;79;21569;-54
2022/06/16 01:38:08;;;;;;;0.30;0.25;;;;;;;11.50;100.00;99892.22;1703948;79;21076;-54
2022/06/16 01:41:11;;;;;;;0.40;0.30;;;;;;;11.56;100.00;99890.59;1762037;79;21073;-53
2022/06/16 01:43:43;;;;;;;0.85;0.30;;;;;;;11.59;100.00;99885.03;1759597;79;21487;-54
2022/06/16 01:46:26;;;;;;;0.70;0.30;;;;;;;11.59;100.00;99884.55;1759575;80;21060;-54
2022/06/16 01:49:02;;;;;;;9.00;0.30;;;;;;;11.58;100.00;99881.93;1761270;79;21140;-55
2022/06/16 01:51:57;;;;;;;2.35;0.30;;;;;;;11.56;100.00;99884.73;1764942;79;21029;-54
2022/06/16 01:54:30;;;;;;;;;;;;;;;11.49;100.00;99882.39;1768321;79;21120;-53
2022/06/16 01:57:09;;;;;;;0.23;0.20;;;;;;;11.44;100.00;99883.98;1766894;79;21144;-54
2022/06/16 01:59:49;;;;;;;0.30;0.30;;;;;;;11.41;100.00;99889.52;1769710;80;21525;-55
2022/06/16 02:02:18;;;;;;;0.37;0.20;;;;;;;11.41;100.00;99888.64;1774529;79;21060;-54
2022/06/16 02:04:56;;;;;;;0.93;0.20;;;;;;;11.42;100.00;99891.27;1772124;79;21152;-54
2022/06/16 02:07:52;;;;;;;2.33;0.57;;;;;;;11.42;100.00;99888.56;1765904;79;21041;-54
2022/06/16 02:10:29;;;;;;;1.85;0.30;;;;;;;11.41;100.00;99893.55;1768370;79;21580;-53
2022/06/16 02:12:58;;;;;;;0.50;0.30;;;;;;;11.48;100.00;99892.33;1759946;79;21530;-54
2022/06/16 02:15:47;;;;;;;1.77;0.30;;;;;;;11.53;100.00;99898.35;1765664;79;21061;-54
2022/06/16 02:18:17;;;;;;;1.47;0.30;;;;;;;11.58;100.00;99897.63;1767450;79;21086;-54
2022/06/16 02:20:55;;;;;;;0.30;0.30;;;;;;;11.64;100.00;99897.83;1763740;79;21045;-54
2022/06/16 02:23:22;;;;;;;0.40;0.20;;;;;;;11.69;100.00;99897.10;1741900;80;21297;-54
2022/06/16 02:25:52;;;;;;;0.60;0.20;;;;;;;11.73;100.00;99894.66;1762819;79;21662;-54
2022/06/16 02:28:21;;;;;;;1.77;0.25;;;;;;;11.79;100.00;99901.12;1770352;79;21001;-54
2022/06/16 02:31:10;;;;;;;0.42;0.20;;;;;;;11.87;100.00;99901.60;1741976;80;21101;-54
2022/06/16 02:34:09;;;;;;;2.10;0.20;;;;;;;11.97;100.00;99902.87;1722398;80;21062;-54
2022/06/16 02:37:00;;;;;;;1.00;0.30;;;;;;;12.11;100.00;99904.38;1769685;79;21331;-54
2022/06/16 02:40:09;;;;;;;1.47;0.37;;;;;;;12.24;100.00;99907.32;1761243;79;21690;-53
2022/06/16 02:43:05;;;;;;;0.62;0.30;;;;;;;12.33;100.00;99912.23;1769244;80;21071;-54
2022/06/16 02:45:57;;;;;;;0.30;0.30;;;;;;;12.45;100.00;99914.27;1769517;80;21109;-53
2022/06/16 02:48:50;;;;;;;0.40;0.30;;;;;;;12.55;100.00;99911.08;1766233;79;21065;-55
2022/06/16 02:51:43;;;;;;;0.60;0.30;;;;;;;12.62;100.00;99913.84;1766104;79;21039;-55
2022/06/16 02:54:38;;;;;;;0.37;0.30;;;;;;;12.72;100.00;99915.97;1769571;79;20976;-54
2022/06/16 02:57:15;;;;;;;0.82;0.20;;;;;;;12.82;100.00;99914.52;1740994;79;26774;-53
2022/06/16 02:59:47;;;;;;;1.90;0.37;;;;;;;12.93;100.00;99915.25;1767584;80;20899;-54
2022/06/16 03:02:18;;;;;;;0.72;0.20;;;;;;;13.00;100.00;99918.51;1767190;79;20933;-53
2022/06/16 03:04:50;;;;;;;0.50;0.30;;;;;;;13.05;100.00;99917.77;1769996;79;21401;-53
2022/06/16 03:07:19;;;;;;;0.60;0.40;;;;;;;13.12;100.00;99915.10;1741247;80;20942;-53
2022/06/16 03:09:47;;;;;;;3.80;0.33;;;;;;;13.20;100.00;99915.58;1765863;79;20981;-54
2022/06/16 03:12:15;;;;;;;0.60;0.35;;;;;;;13.26;100.00;99911.20;1767673;79;20962;-55
2022/06/16 03:14:42;;;;;;;2.25;0.40;;;;;;;13.31;100.00;99912.28;1772081;79;20914;-53
2022/06/16 03:17:11;;;;;;;1.50;0.30;;;;;;;13.38;100.00;99915.02;1769533;79;21354;-53
2022/06/16 03:19:38;;;;;;;0.98;0.25;;;;;;;13.44;100.00;99916.88;1770625;79;20982;-53
2022/06/16 03:22:05;;;;;;;0.65;0.40;;;;;;;13.52;100.00;99909.23;1773624;80;21049;-54
2022/06/16 03:24:33;;;;;;;0.68;0.30;;;;;;;13.59;100.00;99917.37;1770353;79;20991;-54
2022/06/16 03:26:59;;;;;;;0.82;0.30;;;;;;;13.69;100.00;99913.66;1777643;79;20914;-55
2022/06/16 03:29:28;;;;;;;1.77;0.30;;;;;;;13.78;100.00;99912.25;1770787;79;21397;-54
2022/06/16 03:31:55;;;;;;;0.40;0.30;;;;;;;13.86;100.00;99911.31;1767910;79;21413;-54
2022/06/16 03:34:23;;;;;;;2.08;0.42;;;;;;;13.95;100.00;99910.77;1771336;79;21337;-54
2022/06/16 03:36:52;;;;;;;0.35;0.28;;;;;;;14.03;100.00;99913.89;1772804;80;20934;-54
2022/06/16 03:39:21;;;;;;;2.35;0.40;;;;;;;14.12;100.00;99917.37;1768082;80;20970;-54
2022/06/16 03:41:49;;;;;;;0.45;0.30;;;;;;;14.19;100.00;99913.84;1766183;80;21110;-54
2022/06/16 03:44:16;;;;;;;0.65;0.45;;;;;;;14.25;100.00;99913.45;1752388;80;20974;-54
2022/06/16 03:46:42;;;;;;;1.80;0.40;;;;;;;14.31;100.00;99913.08;1767555;79;21487;-56
2022/06/16 03:49:11;;;;;;;0.72;0.30;;;;;;;14.39;100.00;99911.67;1772680;80;21100;-53
2022/06/16 03:51:42;;;;;;;2.17;0.40;;;;;;;14.49;100.00;99911.11;1767524;79;21048;-55
2022/06/16 03:54:09;;;;;;;1.20;0.40;;;;;;;14.57;100.00;99912.38;1772041;79;21126;-55
2022/06/16 03:56:40;;;;;;;0.78;0.40;;;;;;;14.67;100.00;99906.78;1763135;79;21097;-55
2022/06/16 03:59:09;;;;;;;0.85;0.37;;;;;;;14.78;100.00;99907.95;1767542;79;21085;-55
2022/06/16 04:01:35;;;;;;;0.55;0.40;;;;;;;14.98;100.00;99904.83;1765565;79;21557;-53
2022/06/16 04:04:02;;;;;;;1.32;0.60;;;;;;;14.98;100.00;99904.83;1765901;79;21048;-54
2022/06/16 04:06:34;;;;;;;0.50;0.42;;;;;;;15.08;100.00;99904.64;1759817;79;21256;-55
2022/06/16 04:09:01;;;;;;;2.30;0.60;;;;;;;15.18;100.00;99908.98;1762080;79;21338;-53
2022/06/16 04:11:28;;;;;;;1.20;0.55;;;;;;;15.22;100.00;99901.92;1764914;79;21041;-56
2022/06/16 04:14:10;;;;;;;3.10;0.50;;;;;;;15.31;100.00;99910.79;1764739;79;21609;-55
2022/06/16 04:16:46;;;;;;;0.75;0.47;;;;;;;15.38;100.00;99911.28;1766934;80;21401;-55
2022/06/16 04:19:19;;;;;;;2.67;0.50;;;;;;;15.40;100.00;99905.25;1763903;79;21919;-57
2022/06/16 04:21:48;;;;;;;0.68;0.50;;;;;;;15.46;100.00;99918.44;1767224;79;21035;-55
2022/06/16 04:24:20;;;;;;;2.05;0.40;;;;;;;15.51;100.00;99921.70;1760385;80;21352;-51
2022/06/16 04:26:51;;;;;;;1.20;0.40;;;;;;;15.57;100.00;99915.06;1764073;80;21066;-55
2022/06/16 04:29:18;;;;;;;1.75;0.40;;;;;;;15.62;100.00;99916.48;1769527;79;21022;-55
2022/06/16 04:31:46;;;;;;;0.60;0.42;;;;;;;15.72;100.00;99919.45;1763151;79;21252;-55
2022/06/16 04:34:13;;;;;;;0.57;0.40;;;;;;;15.80;100.00;99922.05;1761293;80;20994;-51
2022/06/16 04:36:41;;;;;;;0.98;0.50;;;;;;;15.89;100.00;99917.84;1767571;80;21064;-54
2022/06/16 04:39:12;;;;;;;3.42;0.50;;;;;;;15.96;100.00;99919.16;1763103;80;21729;-52
2022/06/16 04:41:40;;;;;;;1.87;0.42;;;;;;;16.04;100.00;99915.92;1770441;80;21066;-52
2022/06/16 04:44:08;;;;;;;2.15;0.50;;;;;;;16.10;100.00;99923.16;1764231;80;21169;-55
2022/06/16 04:46:36;;;;;;;2.67;0.50;;;;;;;16.15;100.00;99918.30;1760177;79;21593;-51
2022/06/16 04:49:05;;;;;;;0.70;0.60;;;;;;;16.20;100.00;99920.69;1759627;79;21520;-53
2022/06/16 04:51:39;;;;;;;;;;;;;;;16.24;100.00;99920.88;1764748;79;20950;-50
2022/06/16 04:54:07;;;;;;;2.08;0.53;;;;;;;16.30;100.00;99927.23;1760221;79;20206;-50
2022/06/16 04:56:41;;;;;;;0.93;0.53;;;;;;;16.35;100.00;99921.47;1762400;79;21870;-55
2022/06/16 04:59:26;;;;;;;4.37;0.57;;;;;;;16.39;100.00;99919.81;1764101;80;22235;-52
2022/06/16 05:02:04;;;;;;;1.90;1.02;;;;;;;16.46;100.00;99923.83;1756110;80;21094;-50
2022/06/16 05:04:42;;;;;;;0.70;0.40;;;;;;;16.54;100.00;99924.16;1743824;80;21303;-51
2022/06/16 05:07:16;;;;;;;4.05;0.50;;;;;;;16.64;100.00;99920.35;1754182;80;21084;-54
2022/06/16 05:10:22;;;;;;;1.00;0.50;;;;;;;16.81;100.00;99914.59;1780685;78;27488;-56
2022/06/16 05:13:08;;;;;;;1.45;0.50;;;;;;;16.91;100.00;99920.25;1732091;80;21386;-53
2022/06/16 05:15:54;;;;;;;1.90;0.40;;;;;;;17.03;100.00;99912.06;1739740;80;21452;-55
2022/06/16 05:18:32;;;;;;;1.52;0.40;;;;;;;17.18;100.00;99917.39;1736594;80;21132;-52
2022/06/16 05:21:09;;;;;;;1.72;0.42;;;;;;;17.29;100.00;99910.66;1739975;80;21037;-53
2022/06/16 05:23:54;;;;;;;2.02;0.40;;;;;;;17.40;100.00;99914.83;1735092;80;21547;-51
2022/06/16 05:26:39;;;;;;;0.90;0.40;;;;;;;17.50;100.00;99920.46;1737181;80;21633;-52
2022/06/16 05:29:08;;;;;;;1.27;0.40;;;;;;;17.57;100.00;99917.66;1736490;80;21330;-53
2022/06/16 05:31:50;;;;;;;2.85;0.40;;;;;;;17.67;100.00;99922.83;1741131;80;21069;-55
2022/06/16 05:34:18;;;;;;;1.82;0.50;;;;;;;17.74;100.00;99915.45;1720273;80;21009;-51
2022/06/16 05:36:50;;;;;;;0.75;0.40;;;;;;;17.82;100.00;99915.36;1739841;81;21061;-52
2022/06/16 05:39:24;;;;;;;3.85;1.15;;;;;;;17.89;100.00;99922.08;1706321;80;21539;-53
2022/06/16 05:42:11;;;;;;;1.47;0.50;;;;;;;17.96;100.00;99917.41;1742732;80;21387;-53
2022/06/16 05:44:51;;;;;;;2.60;0.33;;;;;;;18.03;100.00;99921.91;1730761;80;21658;-52
2022/06/16 05:47:37;;;;;;;1.45;0.30;;;;;;;18.08;100.00;99921.93;1638435;86;21554;-51
2022/06/16 05:50:05;;;;;;;0.62;0.30;;;;;;;18.15;100.00;99923.19;1690192;81;21344;-55
2022/06/16 05:52:33;;;;;;;0.60;0.30;;;;;;;18.22;100.00;99922.71;1686757;83;21120;-53
2022/06/16 05:55:08;;;;;;;1.70;0.40;;;;;;;18.27;100.00;99922.75;1692977;83;21394;-55
2022/06/16 05:57:36;;;;;;;1.45;0.30;;;;;;;18.34;100.00;99923.14;1677698;83;21603;-57
2022/06/16 06:00:06;;;;;;;0.88;0.30;;;;;;;18.40;100.00;99925.37;1674373;83;21113;-58
2022/06/16 06:02:35;;;;;;;0.30;0.20;;;;;;;18.46;100.00;99920.80;1675685;83;21499;-51
2022/06/16 06:05:04;;;;;;;0.35;0.30;;;;;;;18.50;100.00;99921.83;1672731;83;20958;-55
2022/06/16 06:16:25;;;;;;;0.40;0.25;;;;;;;18.57;100.00;99920.00;1679598;83;21131;-51
2022/06/16 06:18:20;;;;;;;0.45;0.30;;;;;;;18.84;100.00;99913.73;1644151;84;21791;-58
2022/06/16 06:20:46;;;;;;;1.62;0.23;;;;;;;18.93;100.00;99917.59;1661283;84;21308;-53
2022/06/16 06:23:14;;;;;;;1.37;0.30;;;;;;;18.99;100.00;99922.55;1667835;84;21057;-55
2022/06/16 06:25:41;;;;;;;0.33;0.20;;;;;;;19.02;100.00;99919.09;1666354;84;21570;-56
2022/06/16 06:28:12;;;;;;;0.60;0.28;;;;;;;19.08;100.00;99923.17;1662186;84;21073;-56
2022/06/16 06:30:41;;;;;;;2.85;0.40;;;;;;;19.14;100.00;99924.06;1667395;84;21141;-58
2022/06/16 06:33:08;;;;;;;1.77;0.40;;;;;;;19.20;100.00;99923.56;1657309;84;21190;-55
2022/06/16 06:35:35;;;;;;;0.85;0.23;;;;;;;19.23;100.00;99918.70;1658504;84;21067;-53
2022/06/16 06:38:02;;;;;;;0.40;0.20;;;;;;;19.30;100.00;99919.59;1662149;84;21154;-56
2022/06/16 06:40:33;;;;;;;0.30;0.20;;;;;;;19.36;100.00;99922.68;1667212;84;21101;-56
2022/06/16 06:43:00;;;;;;;0.68;0.28;;;;;;;19.42;100.00;99923.53;1667292;84;21381;-55
2022/06/16 06:45:27;;;;;;;0.50;0.20;;;;;;;19.45;100.00;99926.02;1661144;84;21804;-54
2022/06/16 06:47:53;;;;;;;1.57;0.30;;;;;;;19.49;100.00;99919.33;1661089;84;22259;-55
2022/06/16 06:50:25;;;;;;;3.42;0.33;;;;;;;19.54;100.00;99923.94;1666068;84;21456;-53
2022/06/16 06:52:54;;;;;;;1.10;0.20;;;;;;;19.57;100.00;99918.20;1662614;84;22183;-54
2022/06/16 06:55:21;;;;;;;0.50;0.20;;;;;;;19.62;100.00;99918.70;1664135;84;22220;-53
2022/06/16 06:57:49;;;;;;;0.30;0.20;;;;;;;19.69;100.00;99917.70;1635013;85;21208;-55
2022/06/16 07:00:17;;;;;;;0.42;0.20;;;;;;;19.76;100.00;99917.55;1701918;82;21678;-53
2022/06/16 07:02:44;;;;;;;1.50;0.40;;;;;;;19.80;100.00;99913.58;1663805;84;21512;-53
2022/06/16 07:05:11;;;;;;;1.55;0.20;;;;;;;19.84;100.00;99916.41;1699372;82;21710;-56
2022/06/16 07:07:37;;;;;;;0.88;0.35;;;;;;;19.94;100.00;99909.67;1698276;82;21065;-54
2022/06/16 07:10:07;;;;;;;0.53;0.30;;;;;;;20.05;100.00;99905.55;1697637;82;22424;-54
2022/06/16 07:12:34;;;;;;;0.70;0.30;;;;;;;20.12;100.00;99906.75;1696052;82;21046;-53
2022/06/16 07:15:00;;;;;;;0.20;0.20;;;;;;;20.17;100.00;99904.98;1700603;82;21303;-57
2022/06/16 07:17:27;;;;;;;0.57;0.20;;;;;;;20.19;100.00;99902.98;1697759;82;21030;-54
2022/06/16 07:19:54;;;;;;;0.68;0.20;;;;;;;20.19;100.00;99902.49;1701285;82;21038;-54
2022/06/16 07:22:20;;;;;;;0.40;0.30;;;;;;;20.19;100.00;99906.59;1695900;82;21520;-56
2022/06/16 07:24:48;;;;;;;0.50;0.28;;;;;;;20.20;100.00;99900.63;1662877;83;21022;-55
2022/06/16 07:27:17;;;;;;;0.82;0.20;;;;;;;20.26;100.00;99901.46;1700864;82;21034;-54
2022/06/16 07:29:49;;;;;;;0.30;0.20;;;;;;;20.36;100.00;99906.05;1668530;83;21562;-54
2022/06/16 07:32:13;;;;;;;1.92;0.30;;;;;;;20.47;100.00;99901.52;1700471;82;20927;-56
2022/06/16 07:34:41;;;;;;;0.40;0.20;;;;;;;20.57;100.00;99896.99;1701688;82;22173;-53
2022/06/16 07:37:07;;;;;;;0.95;0.10;;;;;;;20.69;100.00;99896.77;1670812;83;21564;-53
2022/06/16 07:39:34;;;;;;;0.30;0.20;;;;;;;20.80;100.00;99899.94;1704703;82;21050;-54
2022/06/16 07:42:02;;;;;;;0.23;0.20;;;;;;;20.93;100.00;99892.86;1691117;82;21085;-54
2022/06/16 07:44:29;;;;;;;0.70;0.30;;;;;;;20.98;100.00;99894.70;1700521;82;21113;-54
2022/06/16 07:46:56;;;;;;;0.68;0.23;;;;;;;20.98;100.00;99895.58;1696549;82;21111;-54
2022/06/16 07:49:25;;;;;;;3.33;0.20;;;;;;;20.98;100.00;99894.20;1699854;82;21755;-54
2022/06/16 07:51:52;;;;;;;1.77;0.20;;;;;;;20.99;100.00;99890.47;1667750;84;21511;-54
2022/06/16 07:54:19;;;;;;;0.30;0.20;;;;;;;21.01;100.00;99898.02;1667620;83;21053;-55
2022/06/16 07:56:45;;;;;;;0.40;0.20;;;;;;;21.03;100.00;99895.16;1697266;82;21145;-54
2022/06/16 07:59:13;;;;;;;0.68;0.23;;;;;;;21.05;100.00;99891.78;1694945;82;21575;-54
2022/06/16 08:01:39;;;;;;;0.20;0.10;;;;;;;21.07;100.00;99900.73;1670746;84;21105;-54
2022/06/16 08:04:06;;;;;;;0.35;0.20;;;;;;;21.06;100.00;99899.86;1646598;84;21142;-54
2022/06/16 08:06:35;;;;;;;0.35;0.20;;;;;;;21.07;100.00;99894.75;1658562;84;21134;-53
2022/06/16 08:09:03;;;;;;;0.82;0.20;;;;;;;21.08;100.00;99895.13;1699856;82;21551;-53
2022/06/16 08:14:16;;;;;;;0.25;0.15;;;;;;;21.08;100.00;99892.39;1702700;82;21460;-56
2022/06/16 08:16:42;;;;;;;0.40;0.20;;;;;;;21.06;100.00;99895.75;1700562;82;21102;-54
2022/06/16 08:19:09;;;;;;;0.50;0.20;;;;;;;21.05;100.00;99886.31;1697000;82;21065;-56
2022/06/16 08:21:36;;;;;;;0.30;0.20;;;;;;;21.05;100.00;99887.17;1702266;82;21059;-56
2022/06/16 08:24:06;;;;;;;2.62;0.20;;;;;;;21.10;100.00;99884.88;1669480;84;22450;-55
2022/06/16 08:26:32;;;;;;;0.30;0.20;;;;;;;21.14;100.00;99887.72;1706937;82;21103;-56
2022/06/16 08:28:59;;;;;;;0.65;0.23;;;;;;;21.21;100.00;99881.72;1694581;82;21027;-56
2022/06/16 08:31:25;;;;;;;3.42;0.30;;;;;;;21.26;100.00;99883.06;1700441;82;21635;-55
2022/06/16 08:33:52;;;;;;;0.70;0.20;;;;;;;21.34;100.00;99883.73;1700716;82;21058;-56
2022/06/16 08:36:20;;;;;;;0.30;0.20;;;;;;;21.41;100.00;99882.16;1703296;82;21147;-55
2022/06/16 08:38:46;;;;;;;1.17;0.20;;;;;;;21.50;100.00;99876.72;1701383;82;21084;-56
2022/06/16 08:41:37;;;;;;;0.30;0.10;;;;;;;21.61;100.00;99878.45;1704403;82;21525;-53
2022/06/16 08:44:41;;;;;;;0.60;0.20;;;;;;;21.72;100.00;99874.73;1666626;84;21496;-55
2022/06/16 08:47:53;;;;;;;0.40;0.20;;;;;;;21.88;100.00;99872.30;1675903;83;21717;-54
2022/06/16 08:50:28;;;;;;;1.10;0.17;;;;;;;22.05;100.00;99874.86;1695800;82;21575;-54
2022/06/16 08:53:06;;;;;;;0.40;0.15;;;;;;;22.21;100.00;99869.66;1669159;83;21236;-55
2022/06/16 08:56:16;;;;;;;0.62;0.15;;;;;;;22.37;100.00;99872.67;1669677;84;20926;-55
2022/06/16 08:58:58;;;;;;;1.85;0.20;;;;;;;22.49;100.00;99869.28;1701527;82;20974;-58
2022/06/16 09:01:45;;;;;;;3.27;0.10;;;;;;;22.64;100.00;99860.94;1707494;82;21066;-57
2022/06/16 09:04:31;;;;;;;1.47;0.20;;;;;;;22.75;100.00;99864.06;1664833;82;21393;-58
2022/06/16 09:07:08;;;;;;;0.30;0.10;;;;;;;22.89;100.00;99862.20;1700069;82;21406;-57
2022/06/16 09:10:24;;;;;;;0.40;0.20;;;;;;;23.00;100.00;99864.77;1698586;82;20969;-58
2022/06/16 09:13:17;;;;;;;0.30;0.20;;;;;;;23.10;100.00;99860.62;1708105;81;21409;-60
2022/06/16 09:16:26;;;;;;;0.30;0.10;;;;;;;23.22;100.00;99861.63;1708672;81;20994;-58
2022/06/16 09:19:02;;;;;;;0.68;0.10;;;;;;;23.23;100.00;99864.73;1709132;81;21224;-57
2022/06/16 09:21:43;;;;;;;1.22;0.17;;;;;;;23.16;100.00;99858.13;1704537;81;21474;-58
2022/06/16 09:24:35;;;;;;;0.25;0.20;;;;;;;23.03;100.00;99849.38;1714079;81;21041;-58
2022/06/16 09:27:07;;;;;;;0.35;0.10;;;;;;;22.99;100.00;99862.53;1710988;81;20912;-58
2022/06/16 09:29:42;;;;;;;0.55;0.10;;;;;;;23.05;100.00;99854.22;1718787;81;20906;-59
2022/06/16 09:32:27;;;;;;;1.00;0.20;;;;;;;23.18;100.00;99853.86;1714617;81;21164;-60
2022/06/16 09:35:14;;;;;;;0.30;0.10;;;;;;;23.30;100.00;99862.27;1710195;81;21031;-60
2022/06/16 09:37:57;;;;;;;0.20;0.10;;;;;;;23.31;100.00;99861.23;1713273;81;20946;-59
2022/06/16 09:40:35;;;;;;;1.65;0.10;;;;;;;23.21;100.00;99866.80;1712979;81;21081;-59
2022/06/16 09:43:39;;;;;;;0.78;0.20;;;;;;;23.10;100.00;99866.11;1703599;81;21064;-57
2022/06/16 09:46:13;;;;;;;0.88;0.20;;;;;;;22.98;100.00;99871.78;1708076;81;22459;-56
2022/06/16 09:48:54;;;;;;;0.40;0.13;;;;;;;22.91;100.00;99870.66;1719967;81;21054;-59
2022/06/16 09:51:44;;;;;;;0.20;0.20;;;;;;;22.89;100.00;99878.16;1714456;81;21064;-58
2022/06/16 09:54:27;;;;;;;0.55;0.20;;;;;;;22.86;100.00;99872.99;1708046;81;21100;-58
2022/06/16 09:57:07;;;;;;;0.20;0.10;;;;;;;22.81;100.00;99871.19;1714338;81;22146;-58
2022/06/16 09:59:44;;;;;;;2.05;0.20;;;;;;;22.77;100.00;99870.27;1713982;81;21041;-58
2022/06/16 10:02:24;;;;;;;0.40;0.10;;;;;;;22.73;100.00;99872.91;1713604;81;21061;-57
2022/06/16 10:04:51;;;;;;;0.20;0.10;;;;;;;22.70;100.00;99868.60;1709535;81;21089;-58
2022/06/16 10:07:31;;;;;;;1.90;0.20;;;;;;;22.70;100.00;99868.60;1713871;81;21050;-59
2022/06/16 10:10:32;;;;;;;1.45;0.20;;;;;;;22.68;100.00;99866.51;1710499;81;21037;-59
2022/06/16 10:13:25;;;;;;;0.47;0.20;;;;;;;22.70;100.00;99869.11;1695560;81;21553;-58
2022/06/16 10:16:11;;;;;;;2.42;0.42;;;;;;;22.70;100.00;99873.22;1669563;83;21101;-58
2022/06/16 10:18:38;;;;;;;1.92;0.23;;;;;;;22.70;100.00;99868.60;1706636;82;21050;-58
2022/06/16 10:21:07;;;;;;;0.33;0.17;;;;;;;22.71;100.00;99870.84;1704392;82;21231;-57
2022/06/16 10:23:40;;;;;;;2.17;0.20;;;;;;;22.68;100.00;99869.75;1672663;84;22203;-58
2022/06/16 10:26:07;;;;;;;1.10;0.10;;;;;;;22.66;100.00;99865.78;1669949;83;21144;-58
2022/06/16 10:28:46;;;;;;;0.30;0.20;;;;;;;22.70;100.00;99867.73;1662296;84;21042;-58
2022/06/16 10:31:37;;;;;;;0.20;0.10;;;;;;;22.74;100.00;99862.30;1668048;83;21499;-59
2022/06/16 10:34:01;;;;;;;0.20;0.10;;;;;;;22.75;100.00;99858.57;1668677;83;21052;-59
2022/06/16 10:36:28;;;;;;;1.32;0.10;;;;;;;22.76;100.00;99860.30;1667334;84;22131;-60
2022/06/16 10:39:21;;;;;;;0.20;0.10;;;;;;;22.80;100.00;99851.61;1697680;82;21867;-58
2022/06/16 10:42:04;;;;;;;0.30;0.10;;;;;;;22.89;100.00;99858.08;1696652;82;21065;-58
2022/06/16 10:44:31;;;;;;;0.20;0.10;;;;;;;22.98;100.00;99847.07;1703994;82;21583;-59
2022/06/16 10:47:01;;;;;;;0.20;0.10;;;;;;;23.02;100.00;99844.91;1666271;84;21049;-58
2022/06/16 10:49:36;;;;;;;0.30;0.20;;;;;;;22.99;100.00;99837.83;1705220;82;22771;-58
2022/06/16 10:52:14;;;;;;;0.30;0.20;;;;;;;22.99;100.00;99839.70;1671913;84;21531;-59
2022/06/16 10:55:00;;;;;;;0.47;0.13;;;;;;;23.00;100.00;99831.83;1700675;82;21069;-58
2022/06/16 10:57:30;;;;;;;0.30;0.10;;;;;;;23.04;100.00;99833.78;1676517;84;21654;-57
2022/06/16 11:00:21;;;;;;;0.55;0.10;;;;;;;22.99;100.00;99841.94;1674907;84;21105;-58
2022/06/16 11:03:01;;;;;;;0.30;0.10;;;;;;;22.96;100.00;99838.66;1707137;82;21069;-58
2022/06/16 11:05:31;;;;;;;0.23;0.10;;;;;;;22.89;100.00;99839.73;1701927;82;22421;-58
2022/06/16 11:08:12;;;;;;;0.20;0.10;;;;;;;22.85;100.00;99842.95;1700831;82;21045;-58
2022/06/16 11:10:43;;;;;;;0.20;0.20;;;;;;;22.87;100.00;99832.70;1711201;82;21123;-58
2022/06/16 11:13:14;;;;;;;0.45;0.20;;;;;;;22.97;100.00;99833.49;1702580;82;21074;-57
2022/06/16 11:15:49;;;;;;;0.30;0.10;;;;;;;23.13;100.00;99832.87;1706550;82;21054;-58
2022/06/16 11:18:20;;;;;;;0.30;0.20;;;;;;;23.29;100.00;99841.31;1699818;82;21767;-58
2022/06/16 11:20:50;;;;;;;1.05;0.10;;;;;;;23.38;100.00;99829.41;1703192;82;21038;-58
2022/06/16 11:23:42;;;;;;;0.37;0.15;;;;;;;23.44;100.00;99830.16;1697129;82;21084;-58
2022/06/16 11:26:30;;;;;;;0.20;0.10;;;;;;;23.47;100.00;99827.11;1704965;82;21105;-58
2022/06/16 11:29:15;;;;;;;0.53;0.10;;;;;;;23.57;100.00;99821.56;1699615;82;21427;-57
2022/06/16 11:31:45;;;;;;;0.25;0.10;;;;;;;23.68;100.00;99825.47;1665377;83;21877;-58
2022/06/16 11:34:24;;;;;;;0.33;0.17;;;;;;;23.78;100.00;99826.27;1671406;84;21091;-57
2022/06/16 11:37:39;;;;;;;1.15;0.10;;;;;;;23.78;100.00;99820.77;1707359;82;21101;-59
2022/06/16 11:40:26;;;;;;;0.20;0.10;;;;;;;23.80;100.00;99811.88;1701758;82;21121;-59
2022/06/16 11:43:05;;;;;;;1.40;0.15;;;;;;;23.85;100.00;99810.01;1673059;83;21159;-57
2022/06/16 11:45:43;;;;;;;0.42;0.10;;;;;;;23.92;100.00;99813.34;1672595;82;21850;-58
2022/06/16 11:48:18;;;;;;;0.10;0.10;;;;;;;24.01;100.00;99810.16;1706258;82;21098;-57
2022/06/16 11:51:21;;;;;;;0.20;0.10;;;;;;;24.07;100.00;99808.17;1705764;82;21093;-58
2022/06/16 11:54:03;;;;;;;0.30;0.10;;;;;;;24.11;100.00;99802.69;1664378;84;21085;-57
2022/06/16 11:56:43;;;;;;;0.30;0.20;;;;;;;24.10;100.00;99815.58;1679275;83;21037;-58
2022/06/16 11:59:45;;;;;;;1.85;0.20;;;;;;;24.02;100.00;99821.00;1701036;82;21238;-58
2022/06/16 12:02:30;;;;;;;0.45;0.10;;;;;;;23.93;100.00;99815.58;1675448;84;21405;-57
2022/06/16 12:05:17;;;;;;;0.23;0.10;;;;;;;23.88;100.00;99806.45;1669212;83;21097;-58
2022/06/16 12:08:08;;;;;;;0.90;0.23;;;;;;;23.92;100.00;99809.73;1702422;82;21064;-58
2022/06/16 12:10:54;;;;;;;5.05;0.20;;;;;;;23.95;100.00;99808.91;1697776;82;21113;-59
2022/06/16 12:13:48;;;;;;;0.45;0.23;;;;;;;23.95;100.00;99805.30;1706227;81;21417;-59
2022/06/16 12:16:22;;;;;;;0.40;0.20;;;;;;;24.00;100.00;99801.55;1706013;81;21101;-58
2022/06/16 12:19:29;;;;;;;0.40;0.20;;;;;;;24.08;100.00;99801.63;1717879;81;21080;-58
2022/06/16 12:22:25;;;;;;;0.50;0.20;;;;;;;24.20;100.00;99794.00;1715726;81;21481;-60
2022/06/16 12:25:00;;;;;;;2.62;0.10;;;;;;;24.32;100.00;99788.13;1714697;81;21077;-59
2022/06/16 12:27:50;;;;;;;0.17;0.10;;;;;;;24.43;100.00;99786.98;1688406;83;21253;-58